Lakewood Club, Michigan
Current Conditions -  °F | °C
As of 11:53 PM on Thursday 30 Oct 2014 (Local Time) from KFFX Reporting Station
Overcast Overcast  
Wind Chill: 42°   Ceiling: 3800
Heat Index: 42°   Visibility: 10mi
Dew Point: 38°   Wind: 3mph
Humidity: 86%   Direction: 200°SSW
Pressure: 29.97"   Gusts: NA
Location:  43.3636°N, 86.1512°W
Report Text: KFFX 310353Z AUTO 20003KT 10SM BKN038 OVC070 05/03 A2997 RMK AO2 T00530031
Loading
Personal Weather Stations






























Interactive Weather Map New forecast layout! Learn more

10-Day Weather Forecast

Advertisements
Track Severe Weather on mobile